createdAt,value
2019-05-22T00:01:38.930Z,14.10
2019-05-22T00:04:08.222Z,14.10
2019-05-22T00:06:43.931Z,14.10
2019-05-22T00:09:16.402Z,14.10
2019-05-22T00:11:46.104Z,14.10
2019-05-22T00:14:15.064Z,14.10
2019-05-22T00:16:45.208Z,14.10
2019-05-22T00:19:13.925Z,14.10
2019-05-22T00:21:42.259Z,14.10
2019-05-22T00:24:11.549Z,14.00
2019-05-22T00:26:40.690Z,14.00
2019-05-22T00:29:08.715Z,14.10
2019-05-22T00:31:38.300Z,14.10
2019-05-22T00:34:06.016Z,14.10
2019-05-22T00:36:33.859Z,14.20
2019-05-22T00:39:03.318Z,14.10
2019-05-22T00:41:32.638Z,14.20
2019-05-22T00:44:00.564Z,14.20
2019-05-22T00:46:28.343Z,14.10
2019-05-22T00:48:56.061Z,14.10
2019-05-22T00:51:32.560Z,14.00
2019-05-22T00:54:19.077Z,14.00
2019-05-22T00:56:51.667Z,14.00
2019-05-22T00:59:31.381Z,14.00
2019-05-22T01:02:03.751Z,14.00
2019-05-22T01:04:35.533Z,14.00
2019-05-22T01:07:06.399Z,14.00
2019-05-22T01:09:46.085Z,13.90
2019-05-22T01:12:19.506Z,13.90
2019-05-22T01:14:49.475Z,14.00
2019-05-22T01:17:19.872Z,14.10
2019-05-22T01:19:49.064Z,14.20
2019-05-22T01:22:17.751Z,14.20
2019-05-22T01:24:46.998Z,14.20
2019-05-22T01:27:15.221Z,14.10
2019-05-22T01:29:43.551Z,14.20
2019-05-22T01:32:14.467Z,14.20
2019-05-22T01:34:42.753Z,14.20
2019-05-22T01:37:12.220Z,14.20
2019-05-22T01:39:55.296Z,14.20
2019-05-22T01:42:26.134Z,14.20
2019-05-22T01:45:04.466Z,14.20
2019-05-22T01:47:44.633Z,14.10
2019-05-22T01:50:15.704Z,14.10
2019-05-22T01:52:43.619Z,14.20
2019-05-22T01:55:13.611Z,14.20
2019-05-22T01:57:41.833Z,14.20
2019-05-22T02:00:11.931Z,14.20
2019-05-22T02:02:41.635Z,14.20
2019-05-22T02:05:10.622Z,14.20
2019-05-22T02:07:38.812Z,14.20
2019-05-22T02:10:08.385Z,14.20
2019-05-22T02:12:41.100Z,14.10
2019-05-22T02:15:11.321Z,14.10
2019-05-22T02:17:39.041Z,14.10
2019-05-22T02:20:07.715Z,14.10
2019-05-22T02:22:35.624Z,14.10
2019-05-22T02:25:05.119Z,14.10
2019-05-22T02:27:34.101Z,14.10
2019-05-22T02:30:03.524Z,14.20
2019-05-22T02:32:32.715Z,14.00
2019-05-22T02:35:01.621Z,14.00
2019-05-22T02:37:30.369Z,14.00
2019-05-22T02:39:58.361Z,14.10
2019-05-22T02:42:28.854Z,14.10
2019-05-22T02:44:57.801Z,14.10
2019-05-22T02:47:26.849Z,14.10
2019-05-22T02:49:56.046Z,14.20
2019-05-22T02:52:24.025Z,14.20
2019-05-22T02:54:52.272Z,14.20
2019-05-22T02:57:20.487Z,14.10
2019-05-22T02:59:48.322Z,14.10
2019-05-22T03:02:16.631Z,14.10
2019-05-22T03:04:56.074Z,14.10
2019-05-22T03:07:26.528Z,14.00
2019-05-22T03:09:54.513Z,14.00
2019-05-22T03:12:22.513Z,14.00
2019-05-22T03:14:50.405Z,14.00
2019-05-22T03:17:21.476Z,14.00
2019-05-22T03:19:51.045Z,14.00
2019-05-22T03:22:21.230Z,14.00
2019-05-22T03:24:51.401Z,13.90
2019-05-22T03:27:21.492Z,13.90
2019-05-22T03:29:53.715Z,13.90
2019-05-22T03:32:21.803Z,14.00
2019-05-22T03:34:50.631Z,14.00
2019-05-22T03:37:18.915Z,13.90
2019-05-22T03:39:46.738Z,14.00
2019-05-22T03:42:16.172Z,13.90
2019-05-22T03:44:45.347Z,13.90
2019-05-22T03:47:13.671Z,13.90
2019-05-22T03:49:41.781Z,14.00
2019-05-22T03:52:11.189Z,14.00
2019-05-22T03:54:38.837Z,14.00
2019-05-22T03:57:06.785Z,14.00
2019-05-22T03:59:35.584Z,14.00
2019-05-22T04:02:03.703Z,14.00
2019-05-22T04:04:34.123Z,13.90
2019-05-22T04:07:03.789Z,14.00
2019-05-22T04:09:31.683Z,13.90
2019-05-22T04:11:59.543Z,14.00
2019-05-22T04:14:29.196Z,14.00
2019-05-22T04:16:57.224Z,14.00
2019-05-22T04:19:24.984Z,14.00
2019-05-22T04:21:52.714Z,14.00
2019-05-22T04:24:20.579Z,14.10
2019-05-22T04:26:49.244Z,14.00
2019-05-22T04:29:17.840Z,14.00
2019-05-22T04:31:48.799Z,14.10
2019-05-22T04:34:17.649Z,14.10
2019-05-22T04:36:47.149Z,14.10
2019-05-22T04:39:22.051Z,14.20
2019-05-22T04:41:50.078Z,14.40
2019-05-22T04:44:18.288Z,14.40
2019-05-22T04:46:45.952Z,14.40
2019-05-22T04:49:14.412Z,14.50
2019-05-22T04:51:42.271Z,14.50
2019-05-22T04:54:09.943Z,14.50
2019-05-22T04:56:38.084Z,14.50
2019-05-22T04:59:06.807Z,14.50
2019-05-22T05:01:34.724Z,14.50
2019-05-22T05:04:02.791Z,14.50
2019-05-22T05:06:31.307Z,14.50
2019-05-22T05:08:59.555Z,14.60
2019-05-22T05:11:27.669Z,14.60
2019-05-22T05:13:55.595Z,14.50
2019-05-22T05:16:23.314Z,14.60
2019-05-22T05:18:51.160Z,14.50
2019-05-22T05:21:19.114Z,14.50
2019-05-22T05:23:46.831Z,14.50
2019-05-22T05:26:15.064Z,14.50
2019-05-22T05:28:43.033Z,14.50
2019-05-22T05:31:11.063Z,14.50
2019-05-22T05:33:52.571Z,14.50
2019-05-22T05:36:20.590Z,14.60
2019-05-22T05:38:48.322Z,14.50
2019-05-22T05:41:16.067Z,14.60
2019-05-22T05:43:43.733Z,14.60
2019-05-22T05:46:11.687Z,14.70
2019-05-22T05:48:39.989Z,14.60
2019-05-22T05:51:09.886Z,14.70
2019-05-22T05:53:58.775Z,14.70
2019-05-22T05:56:28.270Z,14.70
2019-05-22T05:58:57.375Z,14.70
2019-05-22T06:01:29.681Z,14.70
2019-05-22T06:03:58.811Z,14.70
2019-05-22T06:06:29.633Z,14.70
2019-05-22T06:08:57.969Z,14.60
2019-05-22T06:11:33.392Z,14.60
2019-05-22T06:14:02.851Z,14.70
2019-05-22T06:16:52.097Z,14.70
2019-05-22T06:19:20.485Z,14.80
2019-05-22T06:21:49.392Z,14.70
2019-05-22T06:24:23.418Z,14.70
2019-05-22T06:26:54.775Z,14.70
2019-05-22T06:29:27.754Z,14.80
2019-05-22T06:31:55.951Z,14.90
2019-05-22T06:34:24.010Z,14.90
2019-05-22T06:36:51.666Z,15.20
2019-05-22T06:39:19.994Z,15.20
2019-05-22T06:41:48.109Z,15.20
2019-05-22T06:44:23.483Z,15.40
2019-05-22T06:46:51.220Z,15.40
2019-05-22T06:49:32.630Z,15.40
2019-05-22T06:52:00.341Z,15.40
2019-05-22T06:54:28.339Z,15.40
2019-05-22T06:56:56.429Z,15.50
2019-05-22T06:59:24.365Z,15.40
2019-05-22T07:02:00.797Z,15.30
2019-05-22T07:04:22.639Z,15.30
2019-05-22T07:06:50.470Z,15.30
2019-05-22T07:09:19.071Z,15.40
2019-05-22T07:11:47.161Z,15.40
2019-05-22T07:14:15.492Z,15.50
2019-05-22T07:16:43.759Z,15.50
2019-05-22T07:19:12.677Z,15.40
2019-05-22T07:21:40.699Z,15.40
2019-05-22T07:24:08.703Z,15.50
2019-05-22T07:26:37.188Z,15.50
2019-05-22T07:29:05.360Z,15.60
2019-05-22T07:31:33.662Z,15.70
2019-05-22T07:34:01.515Z,15.80
2019-05-22T07:36:30.645Z,15.80
2019-05-22T07:38:58.309Z,15.70
2019-05-22T07:41:26.673Z,15.70
2019-05-22T07:43:54.560Z,15.70
2019-05-22T07:46:23.375Z,15.70
2019-05-22T07:48:51.128Z,15.90
2019-05-22T07:51:19.307Z,15.70
2019-05-22T07:53:47.242Z,15.50
2019-05-22T07:56:15.025Z,15.50
2019-05-22T07:58:43.210Z,15.40
2019-05-22T08:01:13.466Z,15.50
2019-05-22T08:03:42.810Z,15.40
2019-05-22T08:06:11.482Z,15.40
2019-05-22T08:08:41.066Z,15.50
2019-05-22T08:11:09.388Z,15.40
2019-05-22T08:13:38.008Z,15.30
2019-05-22T08:16:06.699Z,15.30
2019-05-22T08:18:36.137Z,15.30
2019-05-22T08:21:04.199Z,15.30
2019-05-22T08:23:32.135Z,15.30
2019-05-22T08:25:59.988Z,15.50
2019-05-22T08:28:31.785Z,15.60
2019-05-22T08:31:00.050Z,15.60
2019-05-22T08:33:27.766Z,15.60
2019-05-22T08:35:56.003Z,15.60
2019-05-22T08:38:25.199Z,15.70
2019-05-22T08:40:53.423Z,15.70
2019-05-22T08:43:22.169Z,15.70
2019-05-22T08:45:49.892Z,15.90
2019-05-22T08:48:18.898Z,16.20
2019-05-22T08:50:47.372Z,16.30
2019-05-22T08:53:16.224Z,16.30
2019-05-22T08:55:45.012Z,15.90
2019-05-22T08:58:14.605Z,15.90
2019-05-22T09:00:42.797Z,16.10
2019-05-22T09:03:11.671Z,16.10
2019-05-22T09:05:39.332Z,15.90
2019-05-22T09:08:07.080Z,15.90
2019-05-22T09:10:34.903Z,15.80
2019-05-22T09:13:03.243Z,15.80
2019-05-22T09:15:31.821Z,15.80
2019-05-22T09:18:00.281Z,15.70
2019-05-22T09:20:28.445Z,15.80
2019-05-22T09:22:56.700Z,15.60
2019-05-22T09:25:24.405Z,15.50
2019-05-22T09:27:52.270Z,15.50
2019-05-22T09:30:20.370Z,15.60
2019-05-22T09:32:48.106Z,15.50
2019-05-22T09:35:15.863Z,15.40
2019-05-22T09:37:43.513Z,15.50
2019-05-22T09:40:11.340Z,15.50
2019-05-22T09:42:39.125Z,15.50
2019-05-22T09:45:08.016Z,15.60
2019-05-22T09:47:36.516Z,15.60
2019-05-22T09:50:09.715Z,15.70
2019-05-22T09:52:37.808Z,15.70
2019-05-22T09:55:06.093Z,15.70
2019-05-22T09:57:35.651Z,15.90
2019-05-22T10:00:05.514Z,15.80
2019-05-22T10:02:33.607Z,15.70
2019-05-22T10:05:01.413Z,15.70
2019-05-22T10:07:29.306Z,15.60
2019-05-22T10:09:57.033Z,15.60
2019-05-22T10:12:25.211Z,15.50
2019-05-22T10:14:53.094Z,15.60
2019-05-22T10:17:21.206Z,15.70
2019-05-22T10:19:49.373Z,15.60
2019-05-22T10:22:17.409Z,15.60
2019-05-22T10:24:50.201Z,15.50
2019-05-22T10:27:15.946Z,15.60
2019-05-22T10:29:43.787Z,15.50
2019-05-22T10:32:11.962Z,15.50
2019-05-22T10:34:39.680Z,15.60
2019-05-22T10:37:09.463Z,15.70
2019-05-22T10:39:38.648Z,15.70
2019-05-22T10:42:06.458Z,15.50
2019-05-22T10:44:34.388Z,15.40
2019-05-22T10:47:03.115Z,15.50
2019-05-22T10:49:30.882Z,15.50
2019-05-22T10:51:58.547Z,15.60
2019-05-22T10:54:26.293Z,15.70
2019-05-22T10:56:54.018Z,15.60
2019-05-22T10:59:22.142Z,15.70
2019-05-22T11:01:49.993Z,15.70
2019-05-22T11:04:19.541Z,15.70
2019-05-22T11:06:47.884Z,15.70
2019-05-22T11:09:17.073Z,15.70
2019-05-22T11:11:45.143Z,15.60
2019-05-22T11:16:40.872Z,15.60
2019-05-22T11:19:08.527Z,15.60
2019-05-22T11:21:37.228Z,15.60
2019-05-22T11:24:05.507Z,15.50
2019-05-22T11:26:33.327Z,15.40
2019-05-22T11:29:01.352Z,15.50
2019-05-22T11:31:29.536Z,15.40
2019-05-22T11:33:57.261Z,15.50
2019-05-22T11:36:25.133Z,15.50
2019-05-22T11:38:52.851Z,15.50
2019-05-22T11:41:20.518Z,15.30
2019-05-22T11:43:48.648Z,15.30
2019-05-22T11:46:17.364Z,15.40
2019-05-22T11:48:45.195Z,15.20
2019-05-22T11:51:13.222Z,15.30
2019-05-22T11:53:41.543Z,15.20
2019-05-22T11:56:09.271Z,15.20
2019-05-22T12:01:05.036Z,15.00
2019-05-22T12:03:34.536Z,15.00
2019-05-22T12:06:03.352Z,15.10
2019-05-22T12:08:31.637Z,15.10
2019-05-22T12:11:00.017Z,15.10
2019-05-22T12:13:28.328Z,15.00
2019-05-22T12:15:56.163Z,15.00
2019-05-22T12:18:24.991Z,15.00
2019-05-22T12:20:52.811Z,15.00
2019-05-22T12:23:20.641Z,15.00
2019-05-22T12:25:48.497Z,15.00
2019-05-22T12:28:16.976Z,14.90
2019-05-22T12:30:45.436Z,14.90
2019-05-22T12:33:14.404Z,14.80
2019-05-22T12:35:43.767Z,14.70
2019-05-22T12:38:12.964Z,14.70
2019-05-22T12:40:41.981Z,14.70
2019-05-22T12:43:10.643Z,14.60
2019-05-22T12:45:38.380Z,14.60
2019-05-22T12:48:07.588Z,14.50
2019-05-22T12:50:35.310Z,14.50
2019-05-22T12:53:04.413Z,14.40
2019-05-22T12:55:32.354Z,14.40
2019-05-22T12:58:00.432Z,14.20
2019-05-22T13:00:29.838Z,14.20
2019-05-22T13:03:00.071Z,14.30
2019-05-22T13:05:28.355Z,14.10
2019-05-22T13:07:57.092Z,14.10
2019-05-22T13:10:25.922Z,14.10
2019-05-22T13:12:53.904Z,13.90
2019-05-22T13:15:22.729Z,14.00
2019-05-22T13:17:51.484Z,14.00
2019-05-22T13:20:21.345Z,14.00
2019-05-22T13:25:18.849Z,14.00
2019-05-22T13:27:46.604Z,14.10
2019-05-22T13:30:16.198Z,14.10
2019-05-22T13:32:45.679Z,14.10
2019-05-22T13:35:15.301Z,14.10
2019-05-22T13:37:43.382Z,14.20
2019-05-22T13:40:26.675Z,14.20
2019-05-22T13:42:41.074Z,14.20
2019-05-22T13:45:27.605Z,14.40
2019-05-22T13:47:40.198Z,14.50
2019-05-22T13:50:09.099Z,14.50
2019-05-22T13:52:38.157Z,14.60
2019-05-22T13:55:06.929Z,14.60
2019-05-22T13:57:35.443Z,14.60
2019-05-22T14:00:08.956Z,14.60
2019-05-22T14:02:34.232Z,14.60
2019-05-22T14:05:02.327Z,14.60
2019-05-22T14:07:30.348Z,14.60
2019-05-22T14:09:58.145Z,14.60
2019-05-22T14:12:25.866Z,14.60
2019-05-22T14:14:53.616Z,14.50
2019-05-22T14:17:21.348Z,14.70
2019-05-22T14:19:49.217Z,14.70
2019-05-22T14:22:17.077Z,14.70
2019-05-22T14:24:44.704Z,14.80
2019-05-22T14:27:12.963Z,14.80
2019-05-22T14:29:40.684Z,14.80
2019-05-22T14:32:09.877Z,14.80
2019-05-22T14:34:38.064Z,14.80
2019-05-22T14:37:07.997Z,14.80
2019-05-22T14:39:37.025Z,14.80
2019-05-22T14:42:06.503Z,14.90
2019-05-22T14:44:34.531Z,14.90
2019-05-22T14:47:13.342Z,15.00
2019-05-22T14:49:31.851Z,14.90
2019-05-22T14:52:00.008Z,14.90
2019-05-22T14:54:28.539Z,14.80
2019-05-22T14:56:57.141Z,14.90
2019-05-22T14:59:26.031Z,14.90
2019-05-22T15:01:53.759Z,14.90
2019-05-22T15:04:22.358Z,15.00
2019-05-22T15:06:51.180Z,14.90
2019-05-22T15:09:18.914Z,15.00
2019-05-22T15:11:46.556Z,14.80
2019-05-22T15:14:14.343Z,14.80
2019-05-22T15:16:42.072Z,14.90
2019-05-22T15:19:09.881Z,14.80
2019-05-22T15:21:37.827Z,14.80
2019-05-22T15:24:06.287Z,14.70
2019-05-22T15:26:34.219Z,14.70
2019-05-22T15:29:02.260Z,14.70
2019-05-22T15:31:30.796Z,14.60
2019-05-22T15:33:59.879Z,14.60
2019-05-22T15:36:28.031Z,14.70
2019-05-22T15:38:57.308Z,14.50
2019-05-22T15:41:26.407Z,14.50
2019-05-22T15:43:54.684Z,14.50
2019-05-22T15:46:24.172Z,14.50
2019-05-22T15:48:53.374Z,14.50
2019-05-22T15:51:22.704Z,14.50
2019-05-22T15:53:52.144Z,14.40
2019-05-22T15:56:19.966Z,14.20
2019-05-22T15:58:49.758Z,14.20
2019-05-22T16:01:18.185Z,14.20
2019-05-22T16:03:46.725Z,14.10
2019-05-22T16:06:15.640Z,14.10
2019-05-22T16:08:43.459Z,14.10
2019-05-22T16:11:13.275Z,14.10
2019-05-22T16:13:41.338Z,14.10
2019-05-22T16:16:09.516Z,14.10
2019-05-22T16:18:38.825Z,14.00
2019-05-22T16:21:07.752Z,14.00
2019-05-22T16:23:37.252Z,14.00
2019-05-22T16:26:06.684Z,14.10
2019-05-22T16:28:36.225Z,13.90
2019-05-22T16:31:06.086Z,13.90
2019-05-22T16:33:35.112Z,13.80
2019-05-22T16:36:04.128Z,13.80
2019-05-22T16:38:33.705Z,13.80
2019-05-22T16:41:01.499Z,13.60
2019-05-22T16:43:47.140Z,13.60
2019-05-22T16:45:59.104Z,13.60
2019-05-22T16:48:29.484Z,13.60
2019-05-22T16:50:57.821Z,13.50
2019-05-22T16:53:26.121Z,13.50
2019-05-22T16:55:54.077Z,13.50
2019-05-22T16:58:21.997Z,13.40
2019-05-22T17:00:50.313Z,13.40
2019-05-22T17:03:18.131Z,13.40
2019-05-22T17:05:46.125Z,13.30
2019-05-22T17:08:15.220Z,13.30
2019-05-22T17:10:43.263Z,13.30
2019-05-22T17:13:12.456Z,13.30
2019-05-22T17:15:40.228Z,13.20
2019-05-22T17:18:09.113Z,13.20
2019-05-22T17:20:37.726Z,13.20
2019-05-22T17:23:05.889Z,13.20
2019-05-22T17:25:34.039Z,13.10
2019-05-22T17:28:02.394Z,13.10
2019-05-22T17:32:59.254Z,13.10
2019-05-22T17:35:28.129Z,13.10
2019-05-22T17:37:55.854Z,13.10
2019-05-22T17:40:23.571Z,13.00
2019-05-22T17:42:53.448Z,13.00
2019-05-22T17:45:23.482Z,12.90
2019-05-22T17:47:52.048Z,12.90
2019-05-22T17:50:26.759Z,12.90
2019-05-22T17:52:50.720Z,12.90
2019-05-22T17:55:20.237Z,12.90
2019-05-22T17:57:47.907Z,12.90
2019-05-22T18:00:29.314Z,12.90
2019-05-22T18:02:57.307Z,12.80
2019-05-22T18:05:25.487Z,12.80
2019-05-22T18:07:53.532Z,12.90
2019-05-22T18:10:21.562Z,12.80
2019-05-22T18:12:49.451Z,12.80
2019-05-22T18:15:18.296Z,12.80
2019-05-22T18:17:46.075Z,12.80
2019-05-22T18:20:14.799Z,12.80
2019-05-22T18:22:42.536Z,12.70
2019-05-22T18:25:11.350Z,12.70
2019-05-22T18:27:39.095Z,12.60
2019-05-22T18:30:07.070Z,12.70
2019-05-22T18:32:36.284Z,12.70
2019-05-22T18:35:05.569Z,12.60
2019-05-22T18:37:33.264Z,12.60
2019-05-22T18:40:01.761Z,12.60
2019-05-22T18:42:29.670Z,12.50
2019-05-22T18:44:57.411Z,12.40
2019-05-22T18:47:25.249Z,12.50
2019-05-22T18:49:53.337Z,12.40
2019-05-22T18:52:21.252Z,12.40
2019-05-22T18:54:48.902Z,12.40
2019-05-22T18:57:17.509Z,12.40
2019-05-22T18:59:45.675Z,12.30
2019-05-22T19:02:14.701Z,12.40
2019-05-22T19:04:42.735Z,12.40
2019-05-22T19:07:10.455Z,12.40
2019-05-22T19:09:38.270Z,12.30
2019-05-22T19:12:06.117Z,12.30
2019-05-22T19:14:34.019Z,12.30
2019-05-22T19:17:01.981Z,12.30
2019-05-22T19:19:29.913Z,12.30
2019-05-22T19:21:57.753Z,12.40
2019-05-22T19:24:25.421Z,12.40
2019-05-22T19:26:53.404Z,12.40
2019-05-22T19:29:21.491Z,12.40
2019-05-22T19:31:49.157Z,12.40
2019-05-22T19:34:17.125Z,12.40
2019-05-22T19:36:44.891Z,12.30
2019-05-22T19:39:12.673Z,12.30
2019-05-22T19:41:40.315Z,12.30
2019-05-22T19:44:09.265Z,12.40
2019-05-22T19:46:37.291Z,12.40
2019-05-22T19:49:06.052Z,12.30
2019-05-22T19:51:34.782Z,12.30
2019-05-22T19:54:02.907Z,12.30
2019-05-22T19:56:30.651Z,12.20
2019-05-22T19:58:59.127Z,12.20
2019-05-22T20:01:28.369Z,12.20
2019-05-22T20:03:56.662Z,12.20
2019-05-22T20:06:24.383Z,12.10
2019-05-22T20:08:52.668Z,12.20
2019-05-22T20:11:20.524Z,12.20
2019-05-22T20:13:48.175Z,12.10
2019-05-22T20:16:15.979Z,12.10
2019-05-22T20:18:43.899Z,12.10
2019-05-22T20:21:11.552Z,12.10
2019-05-22T20:23:39.602Z,12.10
2019-05-22T20:26:07.243Z,12.10
2019-05-22T20:28:36.539Z,12.00
2019-05-22T20:31:04.495Z,12.00
2019-05-22T20:33:32.314Z,12.00
2019-05-22T20:36:00.152Z,12.00
2019-05-22T20:38:28.198Z,12.00
2019-05-22T20:40:56.119Z,12.00
2019-05-22T20:43:24.140Z,12.00
2019-05-22T20:45:53.637Z,12.00
2019-05-22T20:48:25.778Z,12.00
2019-05-22T20:53:21.781Z,11.90
2019-05-22T20:55:50.731Z,12.00
2019-05-22T20:58:20.821Z,11.80
2019-05-22T21:00:49.043Z,11.80
2019-05-22T21:03:18.104Z,11.80
2019-05-22T21:05:46.241Z,11.80
2019-05-22T21:08:15.833Z,11.70
2019-05-22T21:10:46.592Z,11.70
2019-05-22T21:13:14.839Z,11.70
2019-05-22T21:15:44.084Z,11.70
2019-05-22T21:18:12.809Z,11.70
2019-05-22T21:20:53.572Z,11.60
2019-05-22T21:23:11.059Z,11.60
2019-05-22T21:25:38.808Z,11.70
2019-05-22T21:28:06.689Z,11.60
2019-05-22T21:30:35.110Z,11.60
2019-05-22T21:33:03.604Z,11.60
2019-05-22T21:35:31.474Z,11.50
2019-05-22T21:37:59.696Z,11.50
2019-05-22T21:40:27.918Z,11.50
2019-05-22T21:42:56.281Z,11.50
2019-05-22T21:45:25.469Z,11.40
2019-05-22T21:47:53.209Z,11.50
2019-05-22T21:50:22.099Z,11.50
2019-05-22T21:52:50.385Z,11.40
2019-05-22T21:55:20.915Z,11.40
2019-05-22T21:57:48.565Z,11.40
2019-05-22T22:02:54.238Z,11.40
2019-05-22T22:05:21.996Z,11.50
2019-05-22T22:07:50.227Z,11.40
2019-05-22T22:10:18.596Z,11.30
2019-05-22T22:12:47.754Z,11.30
2019-05-22T22:15:17.394Z,11.30
2019-05-22T22:17:46.906Z,11.30
2019-05-22T22:20:16.668Z,11.30
2019-05-22T22:22:45.076Z,11.30
2019-05-22T22:25:13.815Z,11.30
2019-05-22T22:27:41.547Z,11.30
2019-05-22T22:30:12.310Z,11.30
2019-05-22T22:32:40.658Z,11.20
2019-05-22T22:35:10.273Z,11.20
2019-05-22T22:37:38.703Z,11.20
2019-05-22T22:40:08.597Z,11.20
2019-05-22T22:42:37.243Z,11.40
2019-05-22T22:45:08.715Z,11.30
2019-05-22T22:47:38.292Z,11.30
2019-05-22T22:50:07.423Z,11.30
2019-05-22T22:52:36.214Z,11.30
2019-05-22T22:55:06.512Z,11.20
2019-05-22T22:57:34.947Z,11.20
2019-05-22T23:00:03.343Z,11.20
2019-05-22T23:02:32.882Z,11.10
2019-05-22T23:05:01.183Z,11.20
2019-05-22T23:07:30.659Z,11.10
2019-05-22T23:09:58.790Z,11.10
2019-05-22T23:12:27.808Z,11.20
2019-05-22T23:14:57.572Z,11.20
2019-05-22T23:17:25.963Z,11.20
2019-05-22T23:19:54.783Z,11.10
2019-05-22T23:22:21.899Z,11.20
2019-05-22T23:24:52.129Z,11.10
2019-05-22T23:27:20.945Z,11.10
2019-05-22T23:29:48.864Z,11.00
2019-05-22T23:32:18.385Z,11.10
2019-05-22T23:34:47.465Z,11.10
2019-05-22T23:37:17.461Z,11.10
2019-05-22T23:39:46.199Z,11.00
2019-05-22T23:42:15.960Z,11.00
2019-05-22T23:44:44.186Z,11.00
2019-05-22T23:49:41.548Z,10.90
2019-05-22T23:52:10.153Z,10.90
2019-05-22T23:54:40.147Z,10.90
2019-05-22T23:57:09.539Z,10.90
2019-05-22T23:59:39.352Z,10.90
